sensor_id;sensor_type;location;lat;lon;timestamp;P1;durP1;ratioP1;P2;durP2;ratioP2
18399;SDS011;9326;49.468;11.008;2023-06-22T05:02:16;7.80;;;7.00;;
18399;SDS011;9326;49.468;11.008;2023-06-22T05:04:43;8.37;;;7.27;;
18399;SDS011;9326;49.468;11.008;2023-06-22T05:07:10;8.67;;;7.40;;
18399;SDS011;9326;49.468;11.008;2023-06-22T05:09:37;8.57;;;7.10;;
18399;SDS011;9326;49.468;11.008;2023-06-22T05:12:05;7.63;;;6.93;;
18399;SDS011;9326;49.468;11.008;2023-06-22T05:14:32;8.10;;;6.87;;
18399;SDS011;9326;49.468;11.008;2023-06-22T05:16:59;7.37;;;6.57;;
18399;SDS011;9326;49.468;11.008;2023-06-22T05:19:30;7.93;;;6.47;;
18399;SDS011;9326;49.468;11.008;2023-06-22T05:21:58;7.40;;;6.70;;
18399;SDS011;9326;49.468;11.008;2023-06-22T05:24:25;7.00;;;6.30;;
18399;SDS011;9326;49.468;11.008;2023-06-22T05:26:52;6.97;;;6.27;;
18399;SDS011;9326;49.468;11.008;2023-06-22T05:29:20;7.27;;;6.57;;
18399;SDS011;9326;49.468;11.008;2023-06-22T05:31:48;8.43;;;7.03;;
18399;SDS011;9326;49.468;11.008;2023-06-22T05:34:15;7.40;;;6.60;;
18399;SDS011;9326;49.468;11.008;2023-06-22T05:36:43;9.37;;;6.57;;
18399;SDS011;9326;49.468;11.008;2023-06-22T05:39:10;6.90;;;6.20;;
18399;SDS011;9326;49.468;11.008;2023-06-22T05:41:38;9.10;;;7.27;;
18399;SDS011;9326;49.468;11.008;2023-06-22T05:44:05;8.50;;;6.90;;
18399;SDS011;9326;49.468;11.008;2023-06-22T05:46:32;7.50;;;6.80;;
18399;SDS011;9326;49.468;11.008;2023-06-22T05:48:59;7.70;;;6.90;;
18399;SDS011;9326;49.468;11.008;2023-06-22T05:51:26;9.47;;;6.53;;
18399;SDS011;9326;49.468;11.008;2023-06-22T05:53:55;7.53;;;6.80;;
18399;SDS011;9326;49.468;11.008;2023-06-22T05:56:22;7.67;;;6.90;;
18399;SDS011;9326;49.468;11.008;2023-06-22T05:58:49;8.70;;;6.80;;
18399;SDS011;9326;49.468;11.008;2023-06-22T06:01:16;7.27;;;6.60;;
18399;SDS011;9326;49.468;11.008;2023-06-22T06:03:43;7.43;;;6.70;;
18399;SDS011;9326;49.468;11.008;2023-06-22T06:06:10;8.07;;;6.77;;
18399;SDS011;9326;49.468;11.008;2023-06-22T06:08:37;9.07;;;7.27;;
18399;SDS011;9326;49.468;11.008;2023-06-22T06:11:06;8.63;;;6.97;;
18399;SDS011;9326;49.468;11.008;2023-06-22T06:13:33;7.60;;;6.80;;
18399;SDS011;9326;49.468;11.008;2023-06-22T06:16:00;8.77;;;6.80;;
18399;SDS011;9326;49.468;11.008;2023-06-22T06:18:27;7.30;;;6.60;;
18399;SDS011;9326;49.468;11.008;2023-06-22T06:20:54;7.10;;;6.40;;
18399;SDS011;9326;49.468;11.008;2023-06-22T06:23:21;8.27;;;7.47;;
18399;SDS011;9326;49.468;11.008;2023-06-22T06:25:48;8.30;;;6.83;;
18399;SDS011;9326;49.468;11.008;2023-06-22T06:28:16;8.30;;;6.60;;
18399;SDS011;9326;49.468;11.008;2023-06-22T06:30:43;7.10;;;6.40;;
18399;SDS011;9326;49.468;11.008;2023-06-22T06:33:12;6.90;;;6.30;;
18399;SDS011;9326;49.468;11.008;2023-06-22T06:35:39;7.43;;;6.73;;
18399;SDS011;9326;49.468;11.008;2023-06-22T06:38:06;7.87;;;6.80;;
18399;SDS011;9326;49.468;11.008;2023-06-22T06:40:33;7.53;;;6.70;;
18399;SDS011;9326;49.468;11.008;2023-06-22T06:43:00;7.23;;;6.53;;
18399;SDS011;9326;49.468;11.008;2023-06-22T06:45:28;7.10;;;6.40;;
18399;SDS011;9326;49.468;11.008;2023-06-22T06:47:58;8.57;;;7.30;;
18399;SDS011;9326;49.468;11.008;2023-06-22T06:50:25;7.00;;;6.30;;
18399;SDS011;9326;49.468;11.008;2023-06-22T06:52:52;7.13;;;6.43;;
18399;SDS011;9326;49.468;11.008;2023-06-22T06:55:19;7.30;;;6.57;;
18399;SDS011;9326;49.468;11.008;2023-06-22T06:57:49;10.00;;;6.73;;
18399;SDS011;9326;49.468;11.008;2023-06-22T07:00:18;6.70;;;6.07;;
18399;SDS011;9326;49.468;11.008;2023-06-22T07:02:46;7.83;;;6.17;;
18399;SDS011;9326;49.468;11.008;2023-06-22T07:05:13;6.93;;;6.27;;
18399;SDS011;9326;49.468;11.008;2023-06-22T07:07:40;7.30;;;6.60;;
18399;SDS011;9326;49.468;11.008;2023-06-22T07:10:08;6.30;;;5.70;;
18399;SDS011;9326;49.468;11.008;2023-06-22T07:12:35;7.30;;;5.97;;
18399;SDS011;9326;49.468;11.008;2023-06-22T07:15:02;7.30;;;6.10;;
18399;SDS011;9326;49.468;11.008;2023-06-22T07:17:30;6.90;;;6.20;;
18399;SDS011;9326;49.468;11.008;2023-06-22T07:19:58;6.80;;;5.90;;
18399;SDS011;9326;49.468;11.008;2023-06-22T07:22:25;7.53;;;6.33;;
18399;SDS011;9326;49.468;11.008;2023-06-22T07:24:52;7.30;;;6.40;;
18399;SDS011;9326;49.468;11.008;2023-06-22T07:27:19;6.47;;;5.97;;
18399;SDS011;9326;49.468;11.008;2023-06-22T07:29:46;6.57;;;5.80;;
18399;SDS011;9326;49.468;11.008;2023-06-22T07:32:13;7.37;;;6.53;;
18399;SDS011;9326;49.468;11.008;2023-06-22T07:34:40;6.70;;;6.10;;
18399;SDS011;9326;49.468;11.008;2023-06-22T07:37:09;7.97;;;6.17;;
18399;SDS011;9326;49.468;11.008;2023-06-22T07:39:36;6.63;;;5.97;;
18399;SDS011;9326;49.468;11.008;2023-06-22T07:42:04;6.17;;;5.67;;
18399;SDS011;9326;49.468;11.008;2023-06-22T07:44:31;6.60;;;5.90;;
18399;SDS011;9326;49.468;11.008;2023-06-22T07:46:58;6.00;;;5.50;;
18399;SDS011;9326;49.468;11.008;2023-06-22T07:49:25;6.73;;;5.70;;
18399;SDS011;9326;49.468;11.008;2023-06-22T07:51:52;5.97;;;5.10;;
18399;SDS011;9326;49.468;11.008;2023-06-22T07:54:20;6.15;;;5.55;;
18399;SDS011;9326;49.468;11.008;2023-06-22T07:56:47;5.80;;;5.30;;
18399;SDS011;9326;49.468;11.008;2023-06-22T07:59:14;6.67;;;5.10;;
18399;SDS011;9326;49.468;11.008;2023-06-22T08:01:42;5.70;;;4.63;;
18399;SDS011;9326;49.468;11.008;2023-06-22T08:04:09;5.75;;;5.07;;
18399;SDS011;9326;49.468;11.008;2023-06-22T08:06:36;6.10;;;5.17;;
18399;SDS011;9326;49.468;11.008;2023-06-22T08:09:03;6.38;;;4.68;;
18399;SDS011;9326;49.468;11.008;2023-06-22T08:11:31;5.40;;;4.90;;
18399;SDS011;9326;49.468;11.008;2023-06-22T08:13:59;5.43;;;4.88;;
18399;SDS011;9326;49.468;11.008;2023-06-22T08:16:26;5.68;;;4.25;;
18399;SDS011;9326;49.468;11.008;2023-06-22T08:18:53;5.32;;;3.92;;
18399;SDS011;9326;49.468;11.008;2023-06-22T08:21:20;5.40;;;4.25;;
18399;SDS011;9326;49.468;11.008;2023-06-22T08:23:47;5.00;;;4.50;;
18399;SDS011;9326;49.468;11.008;2023-06-22T08:26:14;5.68;;;4.38;;
18399;SDS011;9326;49.468;11.008;2023-06-22T08:28:43;4.90;;;4.47;;
18399;SDS011;9326;49.468;11.008;2023-06-22T08:31:10;6.22;;;4.22;;
18399;SDS011;9326;49.468;11.008;2023-06-22T08:33:37;5.90;;;4.60;;
18399;SDS011;9326;49.468;11.008;2023-06-22T08:36:04;5.88;;;4.05;;
18399;SDS011;9326;49.468;11.008;2023-06-22T08:38:33;5.32;;;4.30;;
18399;SDS011;9326;49.468;11.008;2023-06-22T08:41:00;5.18;;;4.20;;
18399;SDS011;9326;49.468;11.008;2023-06-22T08:43:27;5.15;;;4.15;;
18399;SDS011;9326;49.468;11.008;2023-06-22T08:45:56;6.50;;;4.50;;
18399;SDS011;9326;49.468;11.008;2023-06-22T08:48:23;6.43;;;4.05;;
18399;SDS011;9326;49.468;11.008;2023-06-22T08:50:50;5.75;;;4.50;;
18399;SDS011;9326;49.468;11.008;2023-06-22T08:53:17;5.07;;;4.22;;
18399;SDS011;9326;49.468;11.008;2023-06-22T08:55:44;6.93;;;4.65;;
18399;SDS011;9326;49.468;11.008;2023-06-22T08:58:11;7.47;;;4.40;;
18399;SDS011;9326;49.468;11.008;2023-06-22T09:00:38;5.90;;;3.92;;
18399;SDS011;9326;49.468;11.008;2023-06-22T09:03:06;5.65;;;4.13;;
18399;SDS011;9326;49.468;11.008;2023-06-22T09:05:33;4.45;;;4.05;;
18399;SDS011;9326;49.468;11.008;2023-06-22T09:08:00;9.23;;;4.53;;
18399;SDS011;9326;49.468;11.008;2023-06-22T09:10:27;7.15;;;4.20;;
18399;SDS011;9326;49.468;11.008;2023-06-22T09:12:54;4.75;;;3.97;;
18399;SDS011;9326;49.468;11.008;2023-06-22T09:15:21;6.97;;;4.20;;
18399;SDS011;9326;49.468;11.008;2023-06-22T09:17:48;5.18;;;4.55;;
18399;SDS011;9326;49.468;11.008;2023-06-22T09:20:17;4.22;;;3.83;;
18399;SDS011;9326;49.468;11.008;2023-06-22T09:22:44;6.40;;;4.18;;
18399;SDS011;9326;49.468;11.008;2023-06-22T09:25:11;8.05;;;5.07;;
18399;SDS011;9326;49.468;11.008;2023-06-22T09:27:38;8.30;;;4.10;;
18399;SDS011;9326;49.468;11.008;2023-06-22T09:30:06;6.22;;;4.20;;
18399;SDS011;9326;49.468;11.008;2023-06-22T09:32:33;5.47;;;4.20;;
18399;SDS011;9326;49.468;11.008;2023-06-22T09:35:01;6.22;;;4.28;;
18399;SDS011;9326;49.468;11.008;2023-06-22T09:37:32;7.38;;;4.30;;
18399;SDS011;9326;49.468;11.008;2023-06-22T09:39:59;8.90;;;4.38;;
18399;SDS011;9326;49.468;11.008;2023-06-22T09:42:26;5.30;;;4.43;;
18399;SDS011;9326;49.468;11.008;2023-06-22T09:44:53;5.20;;;4.13;;
18399;SDS011;9326;49.468;11.008;2023-06-22T09:47:20;7.30;;;5.15;;
18399;SDS011;9326;49.468;11.008;2023-06-22T09:49:47;8.23;;;4.32;;
18399;SDS011;9326;49.468;11.008;2023-06-22T09:52:14;7.57;;;4.15;;
18399;SDS011;9326;49.468;11.008;2023-06-22T09:54:43;5.63;;;4.30;;
18399;SDS011;9326;49.468;11.008;2023-06-22T09:57:10;5.40;;;4.40;;
18399;SDS011;9326;49.468;11.008;2023-06-22T09:59:37;6.70;;;4.30;;
18399;SDS011;9326;49.468;11.008;2023-06-22T10:02:05;8.75;;;4.47;;
18399;SDS011;9326;49.468;11.008;2023-06-22T10:04:32;8.32;;;4.60;;
18399;SDS011;9326;49.468;11.008;2023-06-22T10:06:59;7.93;;;4.55;;
18399;SDS011;9326;49.468;11.008;2023-06-22T10:09:26;5.82;;;4.70;;
18399;SDS011;9326;49.468;11.008;2023-06-22T10:11:55;6.95;;;4.75;;
18399;SDS011;9326;49.468;11.008;2023-06-22T10:14:22;9.18;;;4.70;;
18399;SDS011;9326;49.468;11.008;2023-06-22T10:16:50;9.05;;;4.60;;
18399;SDS011;9326;49.468;11.008;2023-06-22T10:19:18;6.43;;;4.50;;
18399;SDS011;9326;49.468;11.008;2023-06-22T10:21:45;5.60;;;4.95;;
18399;SDS011;9326;49.468;11.008;2023-06-22T10:24:12;5.78;;;4.80;;
18399;SDS011;9326;49.468;11.008;2023-06-22T10:26:39;8.45;;;5.05;;
18399;SDS011;9326;49.468;11.008;2023-06-22T10:29:07;10.75;;;4.45;;
18399;SDS011;9326;49.468;11.008;2023-06-22T10:31:34;7.53;;;4.43;;
18399;SDS011;9326;49.468;11.008;2023-06-22T10:34:01;7.93;;;4.60;;
18399;SDS011;9326;49.468;11.008;2023-06-22T10:36:28;9.10;;;4.80;;
18399;SDS011;9326;49.468;11.008;2023-06-22T10:38:55;9.20;;;4.38;;
18399;SDS011;9326;49.468;11.008;2023-06-22T10:41:24;7.75;;;4.50;;
18399;SDS011;9326;49.468;11.008;2023-06-22T10:43:54;8.75;;;4.88;;
18399;SDS011;9326;49.468;11.008;2023-06-22T10:46:23;6.18;;;4.45;;
18399;SDS011;9326;49.468;11.008;2023-06-22T10:48:50;6.53;;;4.90;;
18399;SDS011;9326;49.468;11.008;2023-06-22T10:51:19;5.68;;;4.90;;
18399;SDS011;9326;49.468;11.008;2023-06-22T10:53:46;7.78;;;4.35;;
18399;SDS011;9326;49.468;11.008;2023-06-22T10:56:13;10.18;;;4.32;;
18399;SDS011;9326;49.468;11.008;2023-06-22T10:58:40;5.63;;;4.45;;
18399;SDS011;9326;49.468;11.008;2023-06-22T11:01:07;7.13;;;4.50;;
18399;SDS011;9326;49.468;11.008;2023-06-22T11:03:36;7.88;;;4.93;;
18399;SDS011;9326;49.468;11.008;2023-06-22T11:06:03;8.82;;;4.70;;
18399;SDS011;9326;49.468;11.008;2023-06-22T11:08:30;8.70;;;5.18;;
18399;SDS011;9326;49.468;11.008;2023-06-22T11:10:57;11.23;;;5.03;;
18399;SDS011;9326;49.468;11.008;2023-06-22T11:13:24;6.28;;;4.57;;
18399;SDS011;9326;49.468;11.008;2023-06-22T11:15:51;9.48;;;5.10;;
18399;SDS011;9326;49.468;11.008;2023-06-22T11:18:18;8.20;;;4.88;;
18399;SDS011;9326;49.468;11.008;2023-06-22T11:20:46;8.82;;;5.25;;
18399;SDS011;9326;49.468;11.008;2023-06-22T11:23:14;7.07;;;4.85;;
18399;SDS011;9326;49.468;11.008;2023-06-22T11:25:41;7.63;;;4.95;;
18399;SDS011;9326;49.468;11.008;2023-06-22T11:28:08;7.82;;;4.47;;
18399;SDS011;9326;49.468;11.008;2023-06-22T11:30:35;6.80;;;4.65;;
18399;SDS011;9326;49.468;11.008;2023-06-22T11:33:02;7.88;;;4.80;;
18399;SDS011;9326;49.468;11.008;2023-06-22T11:35:30;7.53;;;4.47;;
18399;SDS011;9326;49.468;11.008;2023-06-22T11:37:58;8.30;;;4.53;;
18399;SDS011;9326;49.468;11.008;2023-06-22T11:40:25;7.43;;;4.78;;
18399;SDS011;9326;49.468;11.008;2023-06-22T11:42:52;9.27;;;5.07;;
18399;SDS011;9326;49.468;11.008;2023-06-22T11:45:19;7.53;;;4.90;;
18399;SDS011;9326;49.468;11.008;2023-06-22T11:47:46;9.63;;;5.00;;
18399;SDS011;9326;49.468;11.008;2023-06-22T11:50:14;13.45;;;6.05;;
18399;SDS011;9326;49.468;11.008;2023-06-22T11:52:41;7.90;;;4.75;;
18399;SDS011;9326;49.468;11.008;2023-06-22T11:55:09;8.35;;;4.80;;
18399;SDS011;9326;49.468;11.008;2023-06-22T11:57:36;8.18;;;4.70;;
18399;SDS011;9326;49.468;11.008;2023-06-22T12:00:04;6.78;;;4.90;;
18399;SDS011;9326;49.468;11.008;2023-06-22T12:02:42;7.93;;;4.53;;
18399;SDS011;9326;49.468;11.008;2023-06-22T12:05:10;8.00;;;4.60;;
18399;SDS011;9326;49.468;11.008;2023-06-22T12:07:37;8.13;;;5.20;;
18399;SDS011;9326;49.468;11.008;2023-06-22T12:10:05;9.32;;;4.90;;
18399;SDS011;9326;49.468;11.008;2023-06-22T12:12:36;11.40;;;5.05;;
18399;SDS011;9326;49.468;11.008;2023-06-22T12:15:03;8.55;;;4.90;;
18399;SDS011;9326;49.468;11.008;2023-06-22T12:17:31;9.20;;;4.97;;
18399;SDS011;9326;49.468;11.008;2023-06-22T12:19:58;8.23;;;5.22;;
18399;SDS011;9326;49.468;11.008;2023-06-22T12:22:25;7.22;;;4.47;;
18399;SDS011;9326;49.468;11.008;2023-06-22T12:24:52;7.85;;;5.28;;
18399;SDS011;9326;49.468;11.008;2023-06-22T12:27:20;7.72;;;5.07;;
18399;SDS011;9326;49.468;11.008;2023-06-22T12:29:49;7.28;;;5.10;;
18399;SDS011;9326;49.468;11.008;2023-06-22T12:32:16;8.85;;;5.22;;
18399;SDS011;9326;49.468;11.008;2023-06-22T12:34:43;11.02;;;5.28;;
18399;SDS011;9326;49.468;11.008;2023-06-22T12:37:10;11.10;;;5.40;;
18399;SDS011;9326;49.468;11.008;2023-06-22T12:39:38;9.65;;;4.97;;
18399;SDS011;9326;49.468;11.008;2023-06-22T12:42:06;8.40;;;5.35;;
18399;SDS011;9326;49.468;11.008;2023-06-22T12:44:33;7.97;;;5.10;;
18399;SDS011;9326;49.468;11.008;2023-06-22T12:47:02;10.50;;;5.30;;
18399;SDS011;9326;49.468;11.008;2023-06-22T12:49:29;8.02;;;5.55;;
18399;SDS011;9326;49.468;11.008;2023-06-22T12:51:56;7.63;;;4.93;;
18399;SDS011;9326;49.468;11.008;2023-06-22T12:54:23;9.45;;;4.97;;
18399;SDS011;9326;49.468;11.008;2023-06-22T12:56:50;8.52;;;5.18;;
18399;SDS011;9326;49.468;11.008;2023-06-22T12:59:17;10.90;;;5.20;;
18399;SDS011;9326;49.468;11.008;2023-06-22T13:01:44;7.50;;;5.53;;
18399;SDS011;9326;49.468;11.008;2023-06-22T13:04:12;8.95;;;5.25;;
18399;SDS011;9326;49.468;11.008;2023-06-22T13:06:40;13.15;;;5.80;;
18399;SDS011;9326;49.468;11.008;2023-06-22T13:09:07;7.20;;;5.43;;
18399;SDS011;9326;49.468;11.008;2023-06-22T13:11:34;9.48;;;5.43;;
18399;SDS011;9326;49.468;11.008;2023-06-22T13:14:01;7.25;;;4.95;;
18399;SDS011;9326;49.468;11.008;2023-06-22T13:16:28;8.38;;;5.65;;
18399;SDS011;9326;49.468;11.008;2023-06-22T13:18:55;9.13;;;5.40;;
18399;SDS011;9326;49.468;11.008;2023-06-22T13:21:23;9.80;;;6.40;;
18399;SDS011;9326;49.468;11.008;2023-06-22T13:23:50;6.75;;;5.30;;
18399;SDS011;9326;49.468;11.008;2023-06-22T13:26:17;10.27;;;5.55;;
18399;SDS011;9326;49.468;11.008;2023-06-22T13:28:44;10.73;;;5.80;;
18399;SDS011;9326;49.468;11.008;2023-06-22T13:31:11;10.88;;;5.28;;
18399;SDS011;9326;49.468;11.008;2023-06-22T13:33:38;8.50;;;5.95;;
18399;SDS011;9326;49.468;11.008;2023-06-22T13:36:06;8.27;;;5.30;;
18399;SDS011;9326;49.468;11.008;2023-06-22T13:38:35;8.80;;;5.50;;
18399;SDS011;9326;49.468;11.008;2023-06-22T13:41:03;10.10;;;5.45;;
18399;SDS011;9326;49.468;11.008;2023-06-22T13:43:30;8.55;;;5.50;;
18399;SDS011;9326;49.468;11.008;2023-06-22T13:45:57;10.38;;;5.68;;
18399;SDS011;9326;49.468;11.008;2023-06-22T13:48:24;9.90;;;5.03;;
18399;SDS011;9326;49.468;11.008;2023-06-22T13:50:53;7.40;;;5.65;;
18399;SDS011;9326;49.468;11.008;2023-06-22T13:53:20;7.97;;;5.45;;
18399;SDS011;9326;49.468;11.008;2023-06-22T13:55:49;8.95;;;5.63;;
18399;SDS011;9326;49.468;11.008;2023-06-22T13:58:16;8.88;;;5.45;;
18399;SDS011;9326;49.468;11.008;2023-06-22T14:00:44;9.25;;;5.10;;
18399;SDS011;9326;49.468;11.008;2023-06-22T14:03:12;9.57;;;4.75;;
18399;SDS011;9326;49.468;11.008;2023-06-22T14:05:41;10.40;;;4.82;;
18399;SDS011;9326;49.468;11.008;2023-06-22T14:08:08;9.38;;;4.72;;
18399;SDS011;9326;49.468;11.008;2023-06-22T14:10:35;8.20;;;5.00;;
18399;SDS011;9326;49.468;11.008;2023-06-22T14:13:03;9.20;;;5.00;;
18399;SDS011;9326;49.468;11.008;2023-06-22T14:15:31;12.45;;;4.93;;
18399;SDS011;9326;49.468;11.008;2023-06-22T14:17:58;6.10;;;4.97;;
18399;SDS011;9326;49.468;11.008;2023-06-22T14:20:26;8.65;;;5.18;;
18399;SDS011;9326;49.468;11.008;2023-06-22T14:22:53;10.70;;;4.95;;
18399;SDS011;9326;49.468;11.008;2023-06-22T14:25:20;10.65;;;5.38;;
18399;SDS011;9326;49.468;11.008;2023-06-22T14:27:47;9.88;;;4.90;;
18399;SDS011;9326;49.468;11.008;2023-06-22T14:30:15;9.82;;;4.90;;
18399;SDS011;9326;49.468;11.008;2023-06-22T14:32:43;8.60;;;4.82;;
18399;SDS011;9326;49.468;11.008;2023-06-22T14:35:10;11.57;;;4.90;;
18399;SDS011;9326;49.468;11.008;2023-06-22T14:37:37;10.35;;;5.15;;
18399;SDS011;9326;49.468;11.008;2023-06-22T14:40:04;11.40;;;5.43;;
18399;SDS011;9326;49.468;11.008;2023-06-22T14:42:31;7.18;;;4.93;;
18399;SDS011;9326;49.468;11.008;2023-06-22T14:44:58;10.93;;;5.45;;
18399;SDS011;9326;49.468;11.008;2023-06-22T14:47:27;11.02;;;5.13;;
18399;SDS011;9326;49.468;11.008;2023-06-22T14:49:54;10.23;;;5.13;;
18399;SDS011;9326;49.468;11.008;2023-06-22T14:52:21;9.10;;;5.25;;
18399;SDS011;9326;49.468;11.008;2023-06-22T14:54:48;10.25;;;5.00;;
18399;SDS011;9326;49.468;11.008;2023-06-22T14:57:17;8.68;;;4.80;;
18399;SDS011;9326;49.468;11.008;2023-06-22T14:59:45;11.25;;;4.82;;
18399;SDS011;9326;49.468;11.008;2023-06-22T15:02:12;12.23;;;5.35;;
18399;SDS011;9326;49.468;11.008;2023-06-22T15:04:40;8.43;;;5.25;;
18399;SDS011;9326;49.468;11.008;2023-06-22T15:07:07;9.27;;;4.82;;
18399;SDS011;9326;49.468;11.008;2023-06-22T15:09:35;8.68;;;4.60;;
18399;SDS011;9326;49.468;11.008;2023-06-22T15:12:04;10.68;;;5.13;;
18399;SDS011;9326;49.468;11.008;2023-06-22T15:14:36;9.68;;;5.63;;
18399;SDS011;9326;49.468;11.008;2023-06-22T15:17:03;7.95;;;5.05;;
18399;SDS011;9326;49.468;11.008;2023-06-22T15:19:30;9.70;;;5.30;;
18399;SDS011;9326;49.468;11.008;2023-06-22T15:21:59;8.13;;;5.13;;
18399;SDS011;9326;49.468;11.008;2023-06-22T15:24:26;12.80;;;5.15;;
18399;SDS011;9326;49.468;11.008;2023-06-22T15:26:53;8.55;;;5.10;;
18399;SDS011;9326;49.468;11.008;2023-06-22T15:29:20;9.75;;;5.20;;
18399;SDS011;9326;49.468;11.008;2023-06-22T15:31:47;7.45;;;4.90;;
18399;SDS011;9326;49.468;11.008;2023-06-22T15:34:14;9.90;;;5.50;;
18399;SDS011;9326;49.468;11.008;2023-06-22T15:36:41;8.63;;;5.00;;
18399;SDS011;9326;49.468;11.008;2023-06-22T15:39:09;12.98;;;4.82;;
18399;SDS011;9326;49.468;11.008;2023-06-22T15:41:38;9.02;;;5.20;;
18399;SDS011;9326;49.468;11.008;2023-06-22T15:44:06;12.45;;;4.75;;
18399;SDS011;9326;49.468;11.008;2023-06-22T15:46:33;12.98;;;5.63;;
18399;SDS011;9326;49.468;11.008;2023-06-22T15:49:00;12.10;;;5.50;;
18399;SDS011;9326;49.468;11.008;2023-06-22T15:51:27;10.27;;;5.45;;
18399;SDS011;9326;49.468;11.008;2023-06-22T15:53:55;13.75;;;5.20;;
18399;SDS011;9326;49.468;11.008;2023-06-22T15:56:24;11.93;;;5.20;;
18399;SDS011;9326;49.468;11.008;2023-06-22T15:58:51;12.15;;;5.20;;
18399;SDS011;9326;49.468;11.008;2023-06-22T16:01:18;11.18;;;4.85;;
18399;SDS011;9326;49.468;11.008;2023-06-22T16:03:45;11.43;;;5.13;;
18399;SDS011;9326;49.468;11.008;2023-06-22T16:06:12;10.85;;;4.75;;
18399;SDS011;9326;49.468;11.008;2023-06-22T16:08:39;11.23;;;5.13;;
18399;SDS011;9326;49.468;11.008;2023-06-22T16:11:06;11.55;;;5.30;;
18399;SDS011;9326;49.468;11.008;2023-06-22T16:13:35;9.15;;;5.57;;
18399;SDS011;9326;49.468;11.008;2023-06-22T16:16:03;12.43;;;5.20;;
18399;SDS011;9326;49.468;11.008;2023-06-22T16:18:30;11.00;;;5.68;;
18399;SDS011;9326;49.468;11.008;2023-06-22T16:20:57;25.85;;;18.38;;
18399;SDS011;9326;49.468;11.008;2023-06-22T16:23:24;17.52;;;11.52;;
18399;SDS011;9326;49.468;11.008;2023-06-22T16:25:52;13.45;;;7.13;;
18399;SDS011;9326;49.468;11.008;2023-06-22T16:28:18;13.35;;;6.03;;
18399;SDS011;9326;49.468;11.008;2023-06-22T16:30:47;9.90;;;5.32;;
18399;SDS011;9326;49.468;11.008;2023-06-22T16:33:14;9.65;;;4.88;;
18399;SDS011;9326;49.468;11.008;2023-06-22T16:35:41;9.25;;;5.20;;
18399;SDS011;9326;49.468;11.008;2023-06-22T16:38:08;12.10;;;5.40;;
18399;SDS011;9326;49.468;11.008;2023-06-22T16:40:36;7.95;;;4.43;;
18399;SDS011;9326;49.468;11.008;2023-06-22T16:43:03;12.27;;;5.00;;
18399;SDS011;9326;49.468;11.008;2023-06-22T16:45:30;13.07;;;5.22;;
18399;SDS011;9326;49.468;11.008;2023-06-22T16:47:58;12.70;;;4.88;;
18399;SDS011;9326;49.468;11.008;2023-06-22T16:50:25;9.25;;;4.93;;
18399;SDS011;9326;49.468;11.008;2023-06-22T16:52:52;8.88;;;5.13;;
18399;SDS011;9326;49.468;11.008;2023-06-22T16:55:20;9.32;;;4.68;;
18399;SDS011;9326;49.468;11.008;2023-06-22T16:57:49;10.95;;;4.40;;
18399;SDS011;9326;49.468;11.008;2023-06-22T17:00:16;13.52;;;4.95;;
18399;SDS011;9326;49.468;11.008;2023-06-22T17:02:46;10.65;;;4.93;;
18399;SDS011;9326;49.468;11.008;2023-06-22T17:05:15;9.55;;;4.60;;
18399;SDS011;9326;49.468;11.008;2023-06-22T17:07:45;12.20;;;4.65;;
18399;SDS011;9326;49.468;11.008;2023-06-22T17:10:14;14.98;;;5.65;;
18399;SDS011;9326;49.468;11.008;2023-06-22T17:12:41;8.70;;;4.30;;
18399;SDS011;9326;49.468;11.008;2023-06-22T17:15:09;10.20;;;4.85;;
18399;SDS011;9326;49.468;11.008;2023-06-22T17:17:37;9.07;;;4.75;;
18399;SDS011;9326;49.468;11.008;2023-06-22T17:20:05;14.85;;;4.95;;
18399;SDS011;9326;49.468;11.008;2023-06-22T17:22:33;14.20;;;5.32;;
18399;SDS011;9326;49.468;11.008;2023-06-22T17:25:02;12.98;;;4.75;;
18399;SDS011;9326;49.468;11.008;2023-06-22T17:27:30;12.30;;;5.18;;
18399;SDS011;9326;49.468;11.008;2023-06-22T17:30:03;11.13;;;4.47;;
18399;SDS011;9326;49.468;11.008;2023-06-22T17:32:30;11.88;;;4.80;;
18399;SDS011;9326;49.468;11.008;2023-06-22T17:34:57;12.05;;;4.72;;
18399;SDS011;9326;49.468;11.008;2023-06-22T17:37:24;12.57;;;5.10;;
18399;SDS011;9326;49.468;11.008;2023-06-22T17:39:54;14.18;;;4.97;;
18399;SDS011;9326;49.468;11.008;2023-06-22T17:42:21;12.82;;;4.82;;
18399;SDS011;9326;49.468;11.008;2023-06-22T17:44:49;9.07;;;4.63;;
18399;SDS011;9326;49.468;11.008;2023-06-22T17:47:22;9.05;;;4.85;;
18399;SDS011;9326;49.468;11.008;2023-06-22T17:49:49;9.80;;;5.28;;
18399;SDS011;9326;49.468;11.008;2023-06-22T17:52:16;9.48;;;5.22;;
18399;SDS011;9326;49.468;11.008;2023-06-22T17:54:43;12.13;;;6.10;;
18399;SDS011;9326;49.468;11.008;2023-06-22T17:57:15;15.27;;;5.25;;
18399;SDS011;9326;49.468;11.008;2023-06-22T17:59:46;12.65;;;4.93;;
18399;SDS011;9326;49.468;11.008;2023-06-22T18:02:13;12.95;;;5.80;;
18399;SDS011;9326;49.468;11.008;2023-06-22T18:04:41;14.10;;;5.07;;
18399;SDS011;9326;49.468;11.008;2023-06-22T18:07:08;12.10;;;5.50;;
18399;SDS011;9326;49.468;11.008;2023-06-22T18:09:36;7.82;;;4.65;;
18399;SDS011;9326;49.468;11.008;2023-06-22T18:12:03;12.50;;;5.50;;
18399;SDS011;9326;49.468;11.008;2023-06-22T18:14:33;10.98;;;4.93;;
18399;SDS011;9326;49.468;11.008;2023-06-22T18:17:00;13.02;;;6.15;;
18399;SDS011;9326;49.468;11.008;2023-06-22T18:19:27;30.65;;;20.17;;
18399;SDS011;9326;49.468;11.008;2023-06-22T18:21:55;19.17;;;13.00;;
18399;SDS011;9326;49.468;11.008;2023-06-22T18:24:22;16.52;;;10.77;;
18399;SDS011;9326;49.468;11.008;2023-06-22T18:26:50;15.13;;;8.40;;
18399;SDS011;9326;49.468;11.008;2023-06-22T18:29:17;9.55;;;5.28;;
18399;SDS011;9326;49.468;11.008;2023-06-22T18:31:46;10.23;;;5.15;;
18399;SDS011;9326;49.468;11.008;2023-06-22T18:34:13;12.48;;;6.90;;
18399;SDS011;9326;49.468;11.008;2023-06-22T18:36:41;10.50;;;6.30;;
18399;SDS011;9326;49.468;11.008;2023-06-22T18:39:09;10.15;;;5.15;;
18399;SDS011;9326;49.468;11.008;2023-06-22T18:41:37;10.18;;;5.47;;
18399;SDS011;9326;49.468;11.008;2023-06-22T18:44:10;13.88;;;5.72;;
18399;SDS011;9326;49.468;11.008;2023-06-22T18:46:37;14.75;;;5.60;;
18399;SDS011;9326;49.468;11.008;2023-06-22T18:49:11;11.15;;;5.32;;
18399;SDS011;9326;49.468;11.008;2023-06-22T18:51:54;13.35;;;5.65;;
18399;SDS011;9326;49.468;11.008;2023-06-22T18:54:22;11.05;;;5.13;;
18399;SDS011;9326;49.468;11.008;2023-06-22T18:56:53;9.05;;;5.00;;
18399;SDS011;9326;49.468;11.008;2023-06-22T19:02:07;8.68;;;4.57;;
18399;SDS011;9326;49.468;11.008;2023-06-22T19:04:36;12.70;;;5.57;;
18399;SDS011;9326;49.468;11.008;2023-06-22T19:07:04;11.25;;;4.30;;
18399;SDS011;9326;49.468;11.008;2023-06-22T19:09:32;9.48;;;4.70;;
18399;SDS011;9326;49.468;11.008;2023-06-22T19:14:41;11.98;;;4.05;;
18399;SDS011;9326;49.468;11.008;2023-06-22T19:17:08;11.10;;;4.43;;
18399;SDS011;9326;49.468;11.008;2023-06-22T19:19:36;9.25;;;4.10;;
18399;SDS011;9326;49.468;11.008;2023-06-22T19:22:03;15.10;;;4.53;;
18399;SDS011;9326;49.468;11.008;2023-06-22T19:24:31;11.93;;;4.67;;
18399;SDS011;9326;49.468;11.008;2023-06-22T19:26:58;13.40;;;4.43;;
18399;SDS011;9326;49.468;11.008;2023-06-22T19:29:25;11.27;;;5.03;;
18399;SDS011;9326;49.468;11.008;2023-06-22T19:31:54;12.43;;;4.53;;
18399;SDS011;9326;49.468;11.008;2023-06-22T19:34:22;13.50;;;4.67;;
18399;SDS011;9326;49.468;11.008;2023-06-22T19:36:51;12.27;;;4.20;;
18399;SDS011;9326;49.468;11.008;2023-06-22T19:39:18;11.93;;;4.57;;
18399;SDS011;9326;49.468;11.008;2023-06-22T19:41:45;11.47;;;3.93;;
18399;SDS011;9326;49.468;11.008;2023-06-22T19:44:12;8.10;;;4.00;;
18399;SDS011;9326;49.468;11.008;2023-06-22T19:46:39;10.30;;;4.37;;
18399;SDS011;9326;49.468;11.008;2023-06-22T19:49:07;9.60;;;4.07;;
18399;SDS011;9326;49.468;11.008;2023-06-22T19:51:34;12.93;;;4.47;;